sensor_id;sensor_type;location;lat;lon;timestamp;P1;durP1;ratioP1;P2;durP2;ratioP2
34920;SDS011;21128;50.016;20.002;2024-03-22T00:02:08;67.60;;;36.00;;
34920;SDS011;21128;50.016;20.002;2024-03-22T00:04:38;68.40;;;36.40;;
34920;SDS011;21128;50.016;20.002;2024-03-22T00:07:05;70.60;;;37.40;;
34920;SDS011;21128;50.016;20.002;2024-03-22T00:09:31;71.90;;;37.50;;
34920;SDS011;21128;50.016;20.002;2024-03-22T00:11:58;69.50;;;38.10;;
34920;SDS011;21128;50.016;20.002;2024-03-22T00:14:25;68.30;;;36.70;;
34920;SDS011;21128;50.016;20.002;2024-03-22T00:16:51;73.30;;;38.30;;
34920;SDS011;21128;50.016;20.002;2024-03-22T00:19:18;75.60;;;40.50;;
34920;SDS011;21128;50.016;20.002;2024-03-22T00:21:46;78.10;;;39.90;;
34920;SDS011;21128;50.016;20.002;2024-03-22T00:24:13;70.60;;;40.20;;
34920;SDS011;21128;50.016;20.002;2024-03-22T00:26:39;79.30;;;40.70;;
34920;SDS011;21128;50.016;20.002;2024-03-22T00:29:06;81.10;;;42.30;;
34920;SDS011;21128;50.016;20.002;2024-03-22T00:31:33;79.40;;;42.60;;
34920;SDS011;21128;50.016;20.002;2024-03-22T00:33:59;81.70;;;43.20;;
34920;SDS011;21128;50.016;20.002;2024-03-22T00:36:26;80.50;;;42.40;;
34920;SDS011;21128;50.016;20.002;2024-03-22T00:38:53;83.60;;;44.60;;
34920;SDS011;21128;50.016;20.002;2024-03-22T00:41:19;82.50;;;45.10;;
34920;SDS011;21128;50.016;20.002;2024-03-22T00:43:46;87.40;;;47.10;;
34920;SDS011;21128;50.016;20.002;2024-03-22T00:46:13;88.20;;;48.90;;
34920;SDS011;21128;50.016;20.002;2024-03-22T00:48:39;87.60;;;49.10;;
34920;SDS011;21128;50.016;20.002;2024-03-22T00:51:07;87.00;;;48.30;;
34920;SDS011;21128;50.016;20.002;2024-03-22T00:53:34;90.70;;;48.20;;
34920;SDS011;21128;50.016;20.002;2024-03-22T00:56:00;90.80;;;49.00;;
34920;SDS011;21128;50.016;20.002;2024-03-22T00:58:27;96.70;;;49.80;;
34920;SDS011;21128;50.016;20.002;2024-03-22T01:00:54;107.10;;;52.10;;
34920;SDS011;21128;50.016;20.002;2024-03-22T01:03:22;100.80;;;50.80;;
34920;SDS011;21128;50.016;20.002;2024-03-22T01:05:50;92.90;;;51.60;;
34920;SDS011;21128;50.016;20.002;2024-03-22T01:08:16;94.50;;;51.80;;
34920;SDS011;21128;50.016;20.002;2024-03-22T01:10:43;104.30;;;52.50;;
34920;SDS011;21128;50.016;20.002;2024-03-22T01:13:10;98.40;;;54.10;;
34920;SDS011;21128;50.016;20.002;2024-03-22T01:15:37;116.30;;;57.00;;
34920;SDS011;21128;50.016;20.002;2024-03-22T01:18:04;102.40;;;53.80;;
34920;SDS011;21128;50.016;20.002;2024-03-22T01:20:31;110.50;;;58.10;;
34920;SDS011;21128;50.016;20.002;2024-03-22T01:22:59;107.20;;;55.60;;
34920;SDS011;21128;50.016;20.002;2024-03-22T01:25:27;104.70;;;56.10;;
34920;SDS011;21128;50.016;20.002;2024-03-22T01:27:55;103.60;;;54.60;;
34920;SDS011;21128;50.016;20.002;2024-03-22T01:30:22;107.00;;;54.00;;
34920;SDS011;21128;50.016;20.002;2024-03-22T01:32:49;104.90;;;55.80;;
34920;SDS011;21128;50.016;20.002;2024-03-22T01:35:16;96.50;;;54.40;;
34920;SDS011;21128;50.016;20.002;2024-03-22T01:37:42;107.40;;;54.10;;
34920;SDS011;21128;50.016;20.002;2024-03-22T01:40:09;104.90;;;54.70;;
34920;SDS011;21128;50.016;20.002;2024-03-22T01:42:37;102.70;;;54.40;;
34920;SDS011;21128;50.016;20.002;2024-03-22T01:45:04;99.30;;;54.60;;
34920;SDS011;21128;50.016;20.002;2024-03-22T01:47:32;99.90;;;54.60;;
34920;SDS011;21128;50.016;20.002;2024-03-22T01:49:59;102.00;;;53.80;;
34920;SDS011;21128;50.016;20.002;2024-03-22T01:52:27;100.90;;;55.10;;
34920;SDS011;21128;50.016;20.002;2024-03-22T01:54:55;95.40;;;53.60;;
34920;SDS011;21128;50.016;20.002;2024-03-22T01:57:22;105.40;;;56.20;;
34920;SDS011;21128;50.016;20.002;2024-03-22T01:59:50;105.30;;;55.40;;
34920;SDS011;21128;50.016;20.002;2024-03-22T02:02:20;109.30;;;55.40;;
34920;SDS011;21128;50.016;20.002;2024-03-22T02:04:49;103.90;;;54.80;;
34920;SDS011;21128;50.016;20.002;2024-03-22T02:07:17;105.00;;;56.90;;
34920;SDS011;21128;50.016;20.002;2024-03-22T02:09:44;100.10;;;55.50;;
34920;SDS011;21128;50.016;20.002;2024-03-22T02:12:11;102.60;;;57.30;;
34920;SDS011;21128;50.016;20.002;2024-03-22T02:14:38;107.10;;;55.90;;
34920;SDS011;21128;50.016;20.002;2024-03-22T02:17:05;111.90;;;56.40;;
34920;SDS011;21128;50.016;20.002;2024-03-22T02:19:32;99.00;;;54.20;;
34920;SDS011;21128;50.016;20.002;2024-03-22T02:21:58;98.80;;;54.80;;
34920;SDS011;21128;50.016;20.002;2024-03-22T02:24:25;101.30;;;54.20;;
34920;SDS011;21128;50.016;20.002;2024-03-22T02:26:52;100.30;;;54.00;;
34920;SDS011;21128;50.016;20.002;2024-03-22T02:29:18;104.00;;;55.00;;
34920;SDS011;21128;50.016;20.002;2024-03-22T02:31:45;97.30;;;54.00;;
34920;SDS011;21128;50.016;20.002;2024-03-22T02:34:12;99.80;;;54.80;;
34920;SDS011;21128;50.016;20.002;2024-03-22T02:36:38;94.60;;;53.10;;
34920;SDS011;21128;50.016;20.002;2024-03-22T02:39:08;91.30;;;51.60;;
34920;SDS011;21128;50.016;20.002;2024-03-22T02:41:34;107.70;;;54.40;;
34920;SDS011;21128;50.016;20.002;2024-03-22T02:44:01;95.50;;;52.00;;
34920;SDS011;21128;50.016;20.002;2024-03-22T02:46:28;91.60;;;53.50;;
34920;SDS011;21128;50.016;20.002;2024-03-22T02:48:54;97.10;;;54.00;;
34920;SDS011;21128;50.016;20.002;2024-03-22T02:51:21;98.70;;;52.80;;
34920;SDS011;21128;50.016;20.002;2024-03-22T02:53:48;95.20;;;51.80;;
34920;SDS011;21128;50.016;20.002;2024-03-22T02:56:15;88.70;;;51.00;;
34920;SDS011;21128;50.016;20.002;2024-03-22T02:58:41;89.70;;;51.10;;
34920;SDS011;21128;50.016;20.002;2024-03-22T03:01:08;96.70;;;52.80;;
34920;SDS011;21128;50.016;20.002;2024-03-22T03:03:35;103.50;;;51.60;;
34920;SDS011;21128;50.016;20.002;2024-03-22T03:06:02;95.50;;;51.20;;
34920;SDS011;21128;50.016;20.002;2024-03-22T03:08:29;89.60;;;50.70;;
34920;SDS011;21128;50.016;20.002;2024-03-22T03:10:56;84.70;;;47.50;;
34920;SDS011;21128;50.016;20.002;2024-03-22T03:13:22;81.30;;;46.80;;
34920;SDS011;21128;50.016;20.002;2024-03-22T03:15:49;78.20;;;47.30;;
34920;SDS011;21128;50.016;20.002;2024-03-22T03:18:16;86.00;;;47.30;;
34920;SDS011;21128;50.016;20.002;2024-03-22T03:20:43;80.00;;;46.10;;
34920;SDS011;21128;50.016;20.002;2024-03-22T03:23:09;84.80;;;46.20;;
34920;SDS011;21128;50.016;20.002;2024-03-22T03:25:36;80.60;;;46.80;;
34920;SDS011;21128;50.016;20.002;2024-03-22T03:28:03;81.30;;;45.80;;
34920;SDS011;21128;50.016;20.002;2024-03-22T03:30:30;87.10;;;46.30;;
34920;SDS011;21128;50.016;20.002;2024-03-22T03:32:57;81.80;;;47.10;;
34920;SDS011;21128;50.016;20.002;2024-03-22T03:35:23;77.40;;;43.60;;
34920;SDS011;21128;50.016;20.002;2024-03-22T03:37:52;83.20;;;47.40;;
34920;SDS011;21128;50.016;20.002;2024-03-22T03:40:19;80.40;;;46.80;;
34920;SDS011;21128;50.016;20.002;2024-03-22T03:42:46;83.30;;;47.00;;
34920;SDS011;21128;50.016;20.002;2024-03-22T03:45:12;79.30;;;46.60;;
34920;SDS011;21128;50.016;20.002;2024-03-22T03:47:39;85.40;;;46.90;;
34920;SDS011;21128;50.016;20.002;2024-03-22T03:50:06;83.30;;;47.50;;
34920;SDS011;21128;50.016;20.002;2024-03-22T03:52:33;85.20;;;46.30;;
34920;SDS011;21128;50.016;20.002;2024-03-22T03:55:00;78.60;;;46.20;;
34920;SDS011;21128;50.016;20.002;2024-03-22T03:57:27;76.50;;;44.10;;
34920;SDS011;21128;50.016;20.002;2024-03-22T03:59:54;82.50;;;46.70;;
34920;SDS011;21128;50.016;20.002;2024-03-22T04:02:21;81.90;;;46.00;;
34920;SDS011;21128;50.016;20.002;2024-03-22T04:04:47;77.10;;;43.40;;
34920;SDS011;21128;50.016;20.002;2024-03-22T04:07:18;81.70;;;44.60;;
34920;SDS011;21128;50.016;20.002;2024-03-22T04:09:44;71.90;;;42.90;;
34920;SDS011;21128;50.016;20.002;2024-03-22T04:12:11;75.90;;;44.50;;
34920;SDS011;21128;50.016;20.002;2024-03-22T04:14:38;71.90;;;42.80;;
34920;SDS011;21128;50.016;20.002;2024-03-22T04:17:04;76.60;;;42.60;;
34920;SDS011;21128;50.016;20.002;2024-03-22T04:19:31;76.10;;;41.50;;
34920;SDS011;21128;50.016;20.002;2024-03-22T04:21:57;72.30;;;40.30;;
34920;SDS011;21128;50.016;20.002;2024-03-22T04:24:24;67.50;;;41.00;;
34920;SDS011;21128;50.016;20.002;2024-03-22T04:26:51;72.50;;;41.20;;
34920;SDS011;21128;50.016;20.002;2024-03-22T04:29:18;70.20;;;41.30;;
34920;SDS011;21128;50.016;20.002;2024-03-22T04:31:44;79.10;;;41.50;;
34920;SDS011;21128;50.016;20.002;2024-03-22T04:34:11;62.00;;;39.60;;
34920;SDS011;21128;50.016;20.002;2024-03-22T04:36:38;67.70;;;39.80;;
34920;SDS011;21128;50.016;20.002;2024-03-22T04:39:04;66.20;;;41.10;;
34920;SDS011;21128;50.016;20.002;2024-03-22T04:41:31;70.20;;;40.60;;
34920;SDS011;21128;50.016;20.002;2024-03-22T04:43:58;67.60;;;39.60;;
34920;SDS011;21128;50.016;20.002;2024-03-22T04:46:24;68.00;;;39.10;;
34920;SDS011;21128;50.016;20.002;2024-03-22T04:48:51;71.00;;;38.90;;
34920;SDS011;21128;50.016;20.002;2024-03-22T04:51:18;65.50;;;36.90;;
34920;SDS011;21128;50.016;20.002;2024-03-22T04:53:44;68.10;;;39.00;;
34920;SDS011;21128;50.016;20.002;2024-03-22T04:56:11;67.10;;;38.10;;
34920;SDS011;21128;50.016;20.002;2024-03-22T04:58:38;70.60;;;39.60;;
34920;SDS011;21128;50.016;20.002;2024-03-22T05:01:04;65.30;;;39.20;;
34920;SDS011;21128;50.016;20.002;2024-03-22T05:03:31;64.10;;;38.20;;
34920;SDS011;21128;50.016;20.002;2024-03-22T05:05:58;67.10;;;39.90;;
34920;SDS011;21128;50.016;20.002;2024-03-22T05:08:25;62.80;;;39.40;;
34920;SDS011;21128;50.016;20.002;2024-03-22T05:10:52;64.00;;;38.30;;
34920;SDS011;21128;50.016;20.002;2024-03-22T05:13:19;62.90;;;37.60;;
34920;SDS011;21128;50.016;20.002;2024-03-22T05:15:46;59.00;;;37.10;;
34920;SDS011;21128;50.016;20.002;2024-03-22T05:18:13;58.20;;;36.60;;
34920;SDS011;21128;50.016;20.002;2024-03-22T05:20:39;59.50;;;37.90;;
34920;SDS011;21128;50.016;20.002;2024-03-22T05:23:06;61.00;;;38.10;;
34920;SDS011;21128;50.016;20.002;2024-03-22T05:25:33;64.60;;;38.90;;
34920;SDS011;21128;50.016;20.002;2024-03-22T05:28:00;64.00;;;37.50;;
34920;SDS011;21128;50.016;20.002;2024-03-22T05:30:27;62.40;;;38.20;;
34920;SDS011;21128;50.016;20.002;2024-03-22T05:32:54;63.00;;;38.00;;
34920;SDS011;21128;50.016;20.002;2024-03-22T05:35:20;59.60;;;36.00;;
34920;SDS011;21128;50.016;20.002;2024-03-22T05:37:47;59.80;;;38.20;;
34920;SDS011;21128;50.016;20.002;2024-03-22T05:40:15;59.30;;;36.60;;
34920;SDS011;21128;50.016;20.002;2024-03-22T05:42:42;61.60;;;37.50;;
34920;SDS011;21128;50.016;20.002;2024-03-22T05:45:09;57.10;;;35.10;;
34920;SDS011;21128;50.016;20.002;2024-03-22T05:47:36;59.70;;;36.70;;
34920;SDS011;21128;50.016;20.002;2024-03-22T05:50:04;58.30;;;34.40;;
34920;SDS011;21128;50.016;20.002;2024-03-22T05:52:33;58.10;;;36.40;;
34920;SDS011;21128;50.016;20.002;2024-03-22T05:55:00;56.20;;;33.20;;
34920;SDS011;21128;50.016;20.002;2024-03-22T05:57:27;55.60;;;35.90;;
34920;SDS011;21128;50.016;20.002;2024-03-22T05:59:54;51.50;;;33.40;;
34920;SDS011;21128;50.016;20.002;2024-03-22T06:02:21;52.80;;;34.50;;
34920;SDS011;21128;50.016;20.002;2024-03-22T06:04:47;55.00;;;34.70;;
34920;SDS011;21128;50.016;20.002;2024-03-22T06:07:14;51.10;;;32.90;;
34920;SDS011;21128;50.016;20.002;2024-03-22T06:09:42;50.30;;;34.00;;
34920;SDS011;21128;50.016;20.002;2024-03-22T06:12:12;51.60;;;32.80;;
34920;SDS011;21128;50.016;20.002;2024-03-22T06:14:43;53.90;;;33.30;;
34920;SDS011;21128;50.016;20.002;2024-03-22T06:17:11;54.50;;;32.40;;
34920;SDS011;21128;50.016;20.002;2024-03-22T06:19:38;54.30;;;34.20;;
34920;SDS011;21128;50.016;20.002;2024-03-22T06:22:04;49.00;;;33.20;;
34920;SDS011;21128;50.016;20.002;2024-03-22T06:24:31;52.40;;;32.00;;
34920;SDS011;21128;50.016;20.002;2024-03-22T06:26:58;52.90;;;32.50;;
34920;SDS011;21128;50.016;20.002;2024-03-22T06:29:25;55.10;;;31.70;;
34920;SDS011;21128;50.016;20.002;2024-03-22T06:31:51;54.70;;;31.90;;
34920;SDS011;21128;50.016;20.002;2024-03-22T06:34:19;51.20;;;32.50;;
34920;SDS011;21128;50.016;20.002;2024-03-22T06:36:46;48.20;;;30.90;;
34920;SDS011;21128;50.016;20.002;2024-03-22T06:39:13;45.60;;;30.30;;
34920;SDS011;21128;50.016;20.002;2024-03-22T06:41:41;47.00;;;30.70;;
34920;SDS011;21128;50.016;20.002;2024-03-22T06:44:08;45.90;;;30.40;;
34920;SDS011;21128;50.016;20.002;2024-03-22T06:46:39;44.80;;;29.10;;
34920;SDS011;21128;50.016;20.002;2024-03-22T06:49:06;52.80;;;31.40;;
34920;SDS011;21128;50.016;20.002;2024-03-22T06:51:33;48.50;;;31.20;;
34920;SDS011;21128;50.016;20.002;2024-03-22T06:53:59;53.90;;;31.40;;
34920;SDS011;21128;50.016;20.002;2024-03-22T06:56:26;47.80;;;29.10;;
34920;SDS011;21128;50.016;20.002;2024-03-22T06:58:53;40.30;;;29.00;;
34920;SDS011;21128;50.016;20.002;2024-03-22T07:01:20;47.70;;;30.40;;
34920;SDS011;21128;50.016;20.002;2024-03-22T07:03:47;47.10;;;30.90;;
34920;SDS011;21128;50.016;20.002;2024-03-22T07:06:14;45.70;;;29.10;;
34920;SDS011;21128;50.016;20.002;2024-03-22T07:08:41;41.10;;;28.90;;
34920;SDS011;21128;50.016;20.002;2024-03-22T07:11:08;45.60;;;30.70;;
34920;SDS011;21128;50.016;20.002;2024-03-22T07:13:35;53.50;;;29.40;;
34920;SDS011;21128;50.016;20.002;2024-03-22T07:16:02;44.90;;;27.70;;
34920;SDS011;21128;50.016;20.002;2024-03-22T07:18:29;44.00;;;29.50;;
34920;SDS011;21128;50.016;20.002;2024-03-22T07:20:56;44.60;;;29.90;;
34920;SDS011;21128;50.016;20.002;2024-03-22T07:23:27;40.50;;;29.50;;
34920;SDS011;21128;50.016;20.002;2024-03-22T07:25:55;41.70;;;29.10;;
34920;SDS011;21128;50.016;20.002;2024-03-22T07:28:21;49.90;;;31.70;;
34920;SDS011;21128;50.016;20.002;2024-03-22T07:30:48;48.40;;;30.30;;
34920;SDS011;21128;50.016;20.002;2024-03-22T07:33:15;44.00;;;29.20;;
34920;SDS011;21128;50.016;20.002;2024-03-22T07:35:44;47.70;;;30.90;;
34920;SDS011;21128;50.016;20.002;2024-03-22T07:38:11;51.70;;;31.30;;
34920;SDS011;21128;50.016;20.002;2024-03-22T07:40:38;46.30;;;30.60;;
34920;SDS011;21128;50.016;20.002;2024-03-22T07:43:05;46.20;;;30.80;;
34920;SDS011;21128;50.016;20.002;2024-03-22T07:45:34;50.40;;;31.60;;
34920;SDS011;21128;50.016;20.002;2024-03-22T07:48:01;46.70;;;30.60;;
34920;SDS011;21128;50.016;20.002;2024-03-22T07:50:28;46.00;;;30.50;;
34920;SDS011;21128;50.016;20.002;2024-03-22T07:52:55;48.50;;;29.80;;
34920;SDS011;21128;50.016;20.002;2024-03-22T07:55:22;45.20;;;30.80;;
34920;SDS011;21128;50.016;20.002;2024-03-22T07:57:50;43.10;;;29.80;;
34920;SDS011;21128;50.016;20.002;2024-03-22T08:00:17;44.00;;;28.50;;
34920;SDS011;21128;50.016;20.002;2024-03-22T08:02:44;41.40;;;27.50;;
34920;SDS011;21128;50.016;20.002;2024-03-22T08:05:11;44.60;;;28.00;;
34920;SDS011;21128;50.016;20.002;2024-03-22T08:07:38;38.40;;;26.20;;
34920;SDS011;21128;50.016;20.002;2024-03-22T08:10:05;38.20;;;26.70;;
34920;SDS011;21128;50.016;20.002;2024-03-22T08:12:32;40.40;;;28.70;;
34920;SDS011;21128;50.016;20.002;2024-03-22T08:15:00;43.50;;;28.60;;
34920;SDS011;21128;50.016;20.002;2024-03-22T08:17:27;41.30;;;28.50;;
34920;SDS011;21128;50.016;20.002;2024-03-22T08:19:53;43.80;;;28.50;;
34920;SDS011;21128;50.016;20.002;2024-03-22T08:22:20;45.80;;;28.70;;
34920;SDS011;21128;50.016;20.002;2024-03-22T08:24:47;40.80;;;28.30;;
34920;SDS011;21128;50.016;20.002;2024-03-22T08:27:14;42.40;;;29.00;;
34920;SDS011;21128;50.016;20.002;2024-03-22T08:29:41;40.10;;;27.30;;
34920;SDS011;21128;50.016;20.002;2024-03-22T08:32:07;40.90;;;27.90;;
34920;SDS011;21128;50.016;20.002;2024-03-22T08:34:34;41.90;;;28.20;;
34920;SDS011;21128;50.016;20.002;2024-03-22T08:37:01;44.90;;;29.60;;
34920;SDS011;21128;50.016;20.002;2024-03-22T08:39:30;38.40;;;27.40;;
34920;SDS011;21128;50.016;20.002;2024-03-22T08:41:57;43.50;;;28.30;;
34920;SDS011;21128;50.016;20.002;2024-03-22T08:44:24;43.40;;;29.20;;
34920;SDS011;21128;50.016;20.002;2024-03-22T08:46:51;43.90;;;29.30;;
34920;SDS011;21128;50.016;20.002;2024-03-22T08:49:18;46.30;;;28.30;;
34920;SDS011;21128;50.016;20.002;2024-03-22T08:51:45;48.10;;;29.00;;
34920;SDS011;21128;50.016;20.002;2024-03-22T08:54:12;43.70;;;27.80;;
34920;SDS011;21128;50.016;20.002;2024-03-22T08:56:39;47.90;;;27.50;;
34920;SDS011;21128;50.016;20.002;2024-03-22T08:59:06;56.50;;;29.90;;
34920;SDS011;21128;50.016;20.002;2024-03-22T09:01:33;50.30;;;26.90;;
34920;SDS011;21128;50.016;20.002;2024-03-22T09:03:59;56.20;;;25.40;;
34920;SDS011;21128;50.016;20.002;2024-03-22T09:06:26;49.70;;;25.80;;
34920;SDS011;21128;50.016;20.002;2024-03-22T09:08:53;69.20;;;26.50;;
34920;SDS011;21128;50.016;20.002;2024-03-22T09:11:24;41.40;;;25.10;;
34920;SDS011;21128;50.016;20.002;2024-03-22T09:13:54;41.00;;;23.90;;
34920;SDS011;21128;50.016;20.002;2024-03-22T09:16:21;36.60;;;23.10;;
34920;SDS011;21128;50.016;20.002;2024-03-22T09:18:48;43.80;;;24.20;;
34920;SDS011;21128;50.016;20.002;2024-03-22T09:21:15;34.20;;;22.10;;
34920;SDS011;21128;50.016;20.002;2024-03-22T09:23:42;37.30;;;20.80;;
34920;SDS011;21128;50.016;20.002;2024-03-22T09:26:08;29.90;;;18.60;;
34920;SDS011;21128;50.016;20.002;2024-03-22T09:28:35;41.20;;;20.10;;
34920;SDS011;21128;50.016;20.002;2024-03-22T09:31:03;31.80;;;19.60;;
34920;SDS011;21128;50.016;20.002;2024-03-22T09:33:35;27.30;;;17.60;;
34920;SDS011;21128;50.016;20.002;2024-03-22T09:36:02;25.80;;;17.90;;
34920;SDS011;21128;50.016;20.002;2024-03-22T09:38:29;28.10;;;17.70;;
34920;SDS011;21128;50.016;20.002;2024-03-22T09:40:56;28.20;;;17.00;;
34920;SDS011;21128;50.016;20.002;2024-03-22T09:43:23;30.00;;;17.70;;
34920;SDS011;21128;50.016;20.002;2024-03-22T09:45:51;31.30;;;17.80;;
34920;SDS011;21128;50.016;20.002;2024-03-22T09:48:18;36.40;;;18.40;;
34920;SDS011;21128;50.016;20.002;2024-03-22T09:50:46;30.20;;;17.90;;
34920;SDS011;21128;50.016;20.002;2024-03-22T09:53:18;25.90;;;17.00;;
34920;SDS011;21128;50.016;20.002;2024-03-22T09:55:46;33.10;;;16.80;;
34920;SDS011;21128;50.016;20.002;2024-03-22T09:58:15;28.30;;;16.40;;
34920;SDS011;21128;50.016;20.002;2024-03-22T10:00:46;26.20;;;16.50;;
34920;SDS011;21128;50.016;20.002;2024-03-22T10:03:12;31.40;;;16.60;;
34920;SDS011;21128;50.016;20.002;2024-03-22T10:05:40;28.50;;;16.90;;
34920;SDS011;21128;50.016;20.002;2024-03-22T10:08:06;32.90;;;16.90;;
34920;SDS011;21128;50.016;20.002;2024-03-22T10:10:33;23.70;;;16.30;;
34920;SDS011;21128;50.016;20.002;2024-03-22T10:13:00;24.70;;;15.80;;
34920;SDS011;21128;50.016;20.002;2024-03-22T10:15:27;25.00;;;15.80;;
34920;SDS011;21128;50.016;20.002;2024-03-22T10:17:56;29.60;;;15.30;;
34920;SDS011;21128;50.016;20.002;2024-03-22T10:20:23;23.20;;;14.80;;
34920;SDS011;21128;50.016;20.002;2024-03-22T10:22:56;23.40;;;14.60;;
34920;SDS011;21128;50.016;20.002;2024-03-22T10:25:25;26.30;;;14.50;;
34920;SDS011;21128;50.016;20.002;2024-03-22T10:27:54;24.70;;;15.10;;
34920;SDS011;21128;50.016;20.002;2024-03-22T10:30:22;25.60;;;14.90;;
34920;SDS011;21128;50.016;20.002;2024-03-22T10:32:50;21.10;;;13.60;;
34920;SDS011;21128;50.016;20.002;2024-03-22T10:35:17;22.20;;;13.00;;
34920;SDS011;21128;50.016;20.002;2024-03-22T10:37:44;25.80;;;13.90;;
34920;SDS011;21128;50.016;20.002;2024-03-22T10:40:11;19.10;;;13.00;;
34920;SDS011;21128;50.016;20.002;2024-03-22T10:42:39;21.90;;;13.60;;
34920;SDS011;21128;50.016;20.002;2024-03-22T10:45:09;22.40;;;13.70;;
34920;SDS011;21128;50.016;20.002;2024-03-22T10:47:37;26.30;;;14.30;;
34920;SDS011;21128;50.016;20.002;2024-03-22T10:50:05;21.30;;;13.00;;
34920;SDS011;21128;50.016;20.002;2024-03-22T10:55:22;25.30;;;15.20;;
34920;SDS011;21128;50.016;20.002;2024-03-22T10:57:57;22.20;;;14.90;;
34920;SDS011;21128;50.016;20.002;2024-03-22T11:00:27;21.90;;;14.90;;
34920;SDS011;21128;50.016;20.002;2024-03-22T11:02:56;23.90;;;15.00;;
34920;SDS011;21128;50.016;20.002;2024-03-22T11:05:23;24.40;;;15.60;;
34920;SDS011;21128;50.016;20.002;2024-03-22T11:08:03;26.30;;;16.70;;
34920;SDS011;21128;50.016;20.002;2024-03-22T11:10:34;26.80;;;17.30;;
34920;SDS011;21128;50.016;20.002;2024-03-22T11:13:02;26.40;;;18.10;;
34920;SDS011;21128;50.016;20.002;2024-03-22T11:15:30;33.60;;;19.20;;
34920;SDS011;21128;50.016;20.002;2024-03-22T11:17:57;27.60;;;18.90;;
34920;SDS011;21128;50.016;20.002;2024-03-22T11:20:26;33.50;;;19.60;;
34920;SDS011;21128;50.016;20.002;2024-03-22T11:22:54;27.90;;;18.00;;
34920;SDS011;21128;50.016;20.002;2024-03-22T11:25:21;26.80;;;18.60;;
34920;SDS011;21128;50.016;20.002;2024-03-22T11:27:47;27.80;;;19.20;;
34920;SDS011;21128;50.016;20.002;2024-03-22T11:30:17;31.60;;;18.70;;
34920;SDS011;21128;50.016;20.002;2024-03-22T11:32:44;29.30;;;19.60;;
34920;SDS011;21128;50.016;20.002;2024-03-22T11:35:12;28.50;;;18.20;;
34920;SDS011;21128;50.016;20.002;2024-03-22T11:37:39;27.00;;;18.40;;
34920;SDS011;21128;50.016;20.002;2024-03-22T11:40:11;23.80;;;18.60;;
34920;SDS011;21128;50.016;20.002;2024-03-22T11:42:39;23.70;;;17.60;;
34920;SDS011;21128;50.016;20.002;2024-03-22T11:45:08;23.00;;;17.20;;
34920;SDS011;21128;50.016;20.002;2024-03-22T11:47:37;23.30;;;17.30;;
34920;SDS011;21128;50.016;20.002;2024-03-22T11:50:04;27.30;;;18.80;;
34920;SDS011;21128;50.016;20.002;2024-03-22T11:52:31;26.00;;;18.40;;
34920;SDS011;21128;50.016;20.002;2024-03-22T11:54:58;26.60;;;18.80;;
34920;SDS011;21128;50.016;20.002;2024-03-22T11:57:25;28.20;;;18.70;;
34920;SDS011;21128;50.016;20.002;2024-03-22T11:59:52;24.00;;;16.80;;
34920;SDS011;21128;50.016;20.002;2024-03-22T12:02:25;24.30;;;17.30;;
34920;SDS011;21128;50.016;20.002;2024-03-22T12:04:52;26.80;;;18.50;;
34920;SDS011;21128;50.016;20.002;2024-03-22T12:07:19;25.30;;;17.80;;
34920;SDS011;21128;50.016;20.002;2024-03-22T12:09:46;27.30;;;18.50;;
34920;SDS011;21128;50.016;20.002;2024-03-22T12:12:13;26.60;;;18.40;;
34920;SDS011;21128;50.016;20.002;2024-03-22T12:14:40;26.70;;;18.30;;
34920;SDS011;21128;50.016;20.002;2024-03-22T12:17:07;28.80;;;18.50;;
34920;SDS011;21128;50.016;20.002;2024-03-22T12:19:34;26.30;;;17.80;;
34920;SDS011;21128;50.016;20.002;2024-03-22T12:22:01;25.20;;;18.50;;
34920;SDS011;21128;50.016;20.002;2024-03-22T12:24:28;28.80;;;18.10;;
34920;SDS011;21128;50.016;20.002;2024-03-22T12:26:54;29.40;;;19.60;;
34920;SDS011;21128;50.016;20.002;2024-03-22T12:29:21;25.80;;;17.50;;
34920;SDS011;21128;50.016;20.002;2024-03-22T12:31:48;35.30;;;18.40;;
34920;SDS011;21128;50.016;20.002;2024-03-22T12:34:15;29.30;;;16.90;;
34920;SDS011;21128;50.016;20.002;2024-03-22T12:36:42;26.70;;;17.10;;
34920;SDS011;21128;50.016;20.002;2024-03-22T12:39:09;24.10;;;16.80;;
34920;SDS011;21128;50.016;20.002;2024-03-22T12:41:35;26.30;;;17.10;;
34920;SDS011;21128;50.016;20.002;2024-03-22T12:44:02;25.20;;;16.40;;
34920;SDS011;21128;50.016;20.002;2024-03-22T12:46:30;26.80;;;18.10;;
34920;SDS011;21128;50.016;20.002;2024-03-22T12:48:57;29.60;;;17.10;;
34920;SDS011;21128;50.016;20.002;2024-03-22T12:51:23;27.40;;;17.20;;
34920;SDS011;21128;50.016;20.002;2024-03-22T12:53:50;30.60;;;17.90;;
34920;SDS011;21128;50.016;20.002;2024-03-22T12:56:17;26.80;;;17.00;;
34920;SDS011;21128;50.016;20.002;2024-03-22T12:58:44;28.30;;;17.90;;
34920;SDS011;21128;50.016;20.002;2024-03-22T13:01:10;28.50;;;16.90;;
34920;SDS011;21128;50.016;20.002;2024-03-22T13:03:37;31.00;;;17.80;;
34920;SDS011;21128;50.016;20.002;2024-03-22T13:06:04;28.20;;;17.40;;
34920;SDS011;21128;50.016;20.002;2024-03-22T13:08:31;26.00;;;16.70;;
34920;SDS011;21128;50.016;20.002;2024-03-22T13:10:58;21.30;;;15.70;;
34920;SDS011;21128;50.016;20.002;2024-03-22T13:13:25;30.70;;;17.70;;
34920;SDS011;21128;50.016;20.002;2024-03-22T13:15:52;27.20;;;17.10;;
34920;SDS011;21128;50.016;20.002;2024-03-22T13:18:19;30.90;;;18.10;;
34920;SDS011;21128;50.016;20.002;2024-03-22T13:20:46;28.20;;;18.00;;
34920;SDS011;21128;50.016;20.002;2024-03-22T13:23:13;26.80;;;18.60;;
34920;SDS011;21128;50.016;20.002;2024-03-22T13:25:40;26.70;;;17.10;;
34920;SDS011;21128;50.016;20.002;2024-03-22T13:28:07;32.10;;;19.50;;
34920;SDS011;21128;50.016;20.002;2024-03-22T13:30:33;33.60;;;19.70;;
34920;SDS011;21128;50.016;20.002;2024-03-22T13:33:01;25.60;;;18.70;;
34920;SDS011;21128;50.016;20.002;2024-03-22T13:35:28;29.20;;;18.70;;
34920;SDS011;21128;50.016;20.002;2024-03-22T13:37:56;26.50;;;18.60;;
34920;SDS011;21128;50.016;20.002;2024-03-22T13:40:23;32.70;;;18.10;;
34920;SDS011;21128;50.016;20.002;2024-03-22T13:42:52;31.20;;;18.50;;
34920;SDS011;21128;50.016;20.002;2024-03-22T13:45:20;26.40;;;17.30;;
34920;SDS011;21128;50.016;20.002;2024-03-22T13:47:47;27.70;;;18.50;;
34920;SDS011;21128;50.016;20.002;2024-03-22T13:50:14;28.40;;;19.30;;
34920;SDS011;21128;50.016;20.002;2024-03-22T13:52:40;32.20;;;17.20;;
34920;SDS011;21128;50.016;20.002;2024-03-22T13:55:07;30.70;;;18.90;;
34920;SDS011;21128;50.016;20.002;2024-03-22T13:57:34;27.90;;;18.40;;
34920;SDS011;21128;50.016;20.002;2024-03-22T14:00:01;27.60;;;18.70;;
34920;SDS011;21128;50.016;20.002;2024-03-22T14:02:33;32.70;;;20.10;;
34920;SDS011;21128;50.016;20.002;2024-03-22T14:05:00;24.00;;;17.70;;
34920;SDS011;21128;50.016;20.002;2024-03-22T14:07:26;25.80;;;18.60;;
34920;SDS011;21128;50.016;20.002;2024-03-22T14:09:53;25.20;;;18.30;;
34920;SDS011;21128;50.016;20.002;2024-03-22T14:12:20;25.10;;;18.80;;